Terminal Aerodrome Forecast
Issued by NWS

Home | Current Version | Previous Version | Text Only | Print | Product List | Glossary On
Versions: 1 2 3 4 5 6 7 8 9 10 11 12 13 14 15
775
FTUS45 KABQ 301124
TAFSAF
TAF
KSAF 301124Z 3012/3112 15007KT P6SM SCT150
     FM301800 23011KT P6SM FEW070
     FM302300 23012KT P6SM VCTS SCT080CB BKN140
     FM310200 13011KT P6SM VCSH BKN080
     FM310600 03007KT P6SM SCT110=

USA.gov is the U.S. government's official web portal to all federal, state and local government web resources and services.